sensor_id;sensor_type;location;lat;lon;timestamp;temperature;humidity
1461;DHT22;724;49.910;12.530;2022-11-20T00:01:21;-3.30;1.00
1461;DHT22;724;49.910;12.530;2022-11-20T00:03:49;-3.40;1.00
1461;DHT22;724;49.910;12.530;2022-11-20T00:06:18;-3.40;1.00
1461;DHT22;724;49.910;12.530;2022-11-20T00:08:47;-3.40;1.00
1461;DHT22;724;49.910;12.530;2022-11-20T00:11:15;-3.40;1.00
1461;DHT22;724;49.910;12.530;2022-11-20T00:13:43;-3.40;1.00
1461;DHT22;724;49.910;12.530;2022-11-20T00:16:11;-3.40;1.00
1461;DHT22;724;49.910;12.530;2022-11-20T00:18:38;-3.40;1.00
1461;DHT22;724;49.910;12.530;2022-11-20T00:21:06;-3.30;1.00
1461;DHT22;724;49.910;12.530;2022-11-20T00:23:34;-3.30;1.00
1461;DHT22;724;49.910;12.530;2022-11-20T00:26:02;-3.30;1.00
1461;DHT22;724;49.910;12.530;2022-11-20T00:28:30;-3.20;1.00
1461;DHT22;724;49.910;12.530;2022-11-20T00:31:01;-3.30;1.00
1461;DHT22;724;49.910;12.530;2022-11-20T00:33:28;-3.30;1.00
1461;DHT22;724;49.910;12.530;2022-11-20T00:35:59;-3.20;1.00
1461;DHT22;724;49.910;12.530;2022-11-20T00:38:26;-3.30;1.00
1461;DHT22;724;49.910;12.530;2022-11-20T00:40:56;-3.30;1.00
1461;DHT22;724;49.910;12.530;2022-11-20T00:43:23;-3.20;1.00
1461;DHT22;724;49.910;12.530;2022-11-20T00:45:50;-3.20;1.00
1461;DHT22;724;49.910;12.530;2022-11-20T00:48:16;-3.20;1.00
1461;DHT22;724;49.910;12.530;2022-11-20T00:50:43;-3.20;1.00
1461;DHT22;724;49.910;12.530;2022-11-20T00:53:10;-3.10;1.00
1461;DHT22;724;49.910;12.530;2022-11-20T00:55:37;-3.10;1.00
1461;DHT22;724;49.910;12.530;2022-11-20T00:58:05;-3.10;1.00
1461;DHT22;724;49.910;12.530;2022-11-20T01:00:31;-3.10;1.00
1461;DHT22;724;49.910;12.530;2022-11-20T01:02:58;-3.00;1.00
1461;DHT22;724;49.910;12.530;2022-11-20T01:05:25;-3.00;1.00
1461;DHT22;724;49.910;12.530;2022-11-20T01:07:52;-3.00;1.00
1461;DHT22;724;49.910;12.530;2022-11-20T01:10:18;-3.00;1.00
1461;DHT22;724;49.910;12.530;2022-11-20T01:12:45;-2.90;1.00
1461;DHT22;724;49.910;12.530;2022-11-20T01:15:35;-2.80;1.00
1461;DHT22;724;49.910;12.530;2022-11-20T01:18:02;-3.00;1.00
1461;DHT22;724;49.910;12.530;2022-11-20T01:20:28;-3.10;1.00
1461;DHT22;724;49.910;12.530;2022-11-20T01:22:55;-3.00;1.00
1461;DHT22;724;49.910;12.530;2022-11-20T01:25:23;-3.10;1.00
1461;DHT22;724;49.910;12.530;2022-11-20T01:27:50;-3.10;1.00
1461;DHT22;724;49.910;12.530;2022-11-20T01:30:17;-3.10;1.00
1461;DHT22;724;49.910;12.530;2022-11-20T01:32:45;-3.00;1.00
1461;DHT22;724;49.910;12.530;2022-11-20T01:35:11;-3.10;1.00
1461;DHT22;724;49.910;12.530;2022-11-20T01:37:38;-3.10;1.00
1461;DHT22;724;49.910;12.530;2022-11-20T01:40:06;-3.20;1.00
1461;DHT22;724;49.910;12.530;2022-11-20T01:42:32;-3.10;1.00
1461;DHT22;724;49.910;12.530;2022-11-20T01:45:50;-3.10;22.70
1461;DHT22;724;49.910;12.530;2022-11-20T01:48:23;-3.10;99.90
1461;DHT22;724;49.910;12.530;2022-11-20T01:50:51;-3.10;99.90
1461;DHT22;724;49.910;12.530;2022-11-20T01:53:22;-3.20;99.90
1461;DHT22;724;49.910;12.530;2022-11-20T01:55:53;-3.20;99.90
1461;DHT22;724;49.910;12.530;2022-11-20T01:58:25;-3.30;99.90
1461;DHT22;724;49.910;12.530;2022-11-20T02:00:54;-3.20;99.90
1461;DHT22;724;49.910;12.530;2022-11-20T02:03:22;-3.10;99.90
1461;DHT22;724;49.910;12.530;2022-11-20T02:05:51;-3.10;99.90
1461;DHT22;724;49.910;12.530;2022-11-20T02:08:21;-3.10;99.90
1461;DHT22;724;49.910;12.530;2022-11-20T02:10:48;-3.10;99.90
1461;DHT22;724;49.910;12.530;2022-11-20T02:13:15;-3.20;99.90
1461;DHT22;724;49.910;12.530;2022-11-20T02:15:59;-3.20;99.90
1461;DHT22;724;49.910;12.530;2022-11-20T02:18:28;-3.10;99.90
1461;DHT22;724;49.910;12.530;2022-11-20T02:21:00;-3.00;99.90
1461;DHT22;724;49.910;12.530;2022-11-20T02:23:32;-3.00;99.90
1461;DHT22;724;49.910;12.530;2022-11-20T02:26:04;-3.00;99.90
1461;DHT22;724;49.910;12.530;2022-11-20T02:28:31;-2.90;99.90
1461;DHT22;724;49.910;12.530;2022-11-20T02:30:58;-2.90;99.90
1461;DHT22;724;49.910;12.530;2022-11-20T02:33:25;-2.90;99.90
1461;DHT22;724;49.910;12.530;2022-11-20T02:35:52;-2.90;99.90
1461;DHT22;724;49.910;12.530;2022-11-20T02:38:19;-2.90;99.90
1461;DHT22;724;49.910;12.530;2022-11-20T02:40:46;-2.80;99.90
1461;DHT22;724;49.910;12.530;2022-11-20T02:43:15;-2.80;99.90
1461;DHT22;724;49.910;12.530;2022-11-20T02:45:42;-2.90;99.90
1461;DHT22;724;49.910;12.530;2022-11-20T02:48:09;-2.90;99.90
1461;DHT22;724;49.910;12.530;2022-11-20T02:50:37;-2.80;99.90
1461;DHT22;724;49.910;12.530;2022-11-20T02:53:05;-2.70;99.90
1461;DHT22;724;49.910;12.530;2022-11-20T02:55:32;-2.70;99.90
1461;DHT22;724;49.910;12.530;2022-11-20T02:57:59;-2.90;99.90
1461;DHT22;724;49.910;12.530;2022-11-20T03:00:27;-2.90;99.90
1461;DHT22;724;49.910;12.530;2022-11-20T03:02:53;-2.90;99.90
1461;DHT22;724;49.910;12.530;2022-11-20T03:05:20;-2.90;99.90
1461;DHT22;724;49.910;12.530;2022-11-20T03:07:47;-3.00;99.90
1461;DHT22;724;49.910;12.530;2022-11-20T03:10:14;-2.90;99.90
1461;DHT22;724;49.910;12.530;2022-11-20T03:12:40;-3.00;99.90
1461;DHT22;724;49.910;12.530;2022-11-20T03:15:08;-3.00;99.90
1461;DHT22;724;49.910;12.530;2022-11-20T03:17:37;-3.00;99.90
1461;DHT22;724;49.910;12.530;2022-11-20T03:20:05;-3.00;99.90
1461;DHT22;724;49.910;12.530;2022-11-20T03:22:32;-3.00;99.90
1461;DHT22;724;49.910;12.530;2022-11-20T03:24:58;-3.00;99.90
1461;DHT22;724;49.910;12.530;2022-11-20T03:27:25;-2.90;99.90
1461;DHT22;724;49.910;12.530;2022-11-20T03:29:52;-2.90;99.90
1461;DHT22;724;49.910;12.530;2022-11-20T03:32:19;-2.90;99.90
1461;DHT22;724;49.910;12.530;2022-11-20T03:34:47;-2.90;99.90
1461;DHT22;724;49.910;12.530;2022-11-20T03:37:13;-2.80;99.90
1461;DHT22;724;49.910;12.530;2022-11-20T03:39:40;-2.80;99.90
1461;DHT22;724;49.910;12.530;2022-11-20T03:42:08;-2.90;99.90
1461;DHT22;724;49.910;12.530;2022-11-20T03:44:55;-2.90;99.90
1461;DHT22;724;49.910;12.530;2022-11-20T03:47:22;-2.90;99.90
1461;DHT22;724;49.910;12.530;2022-11-20T03:49:50;-3.00;99.90
1461;DHT22;724;49.910;12.530;2022-11-20T03:52:17;-2.90;99.90
1461;DHT22;724;49.910;12.530;2022-11-20T03:54:44;-2.90;99.90
1461;DHT22;724;49.910;12.530;2022-11-20T03:57:11;-2.90;99.90
1461;DHT22;724;49.910;12.530;2022-11-20T03:59:37;-2.90;99.90
1461;DHT22;724;49.910;12.530;2022-11-20T04:02:04;-2.90;99.90
1461;DHT22;724;49.910;12.530;2022-11-20T04:04:31;-3.00;99.90
1461;DHT22;724;49.910;12.530;2022-11-20T04:06:59;-2.90;99.90
1461;DHT22;724;49.910;12.530;2022-11-20T04:09:26;-2.90;99.90
1461;DHT22;724;49.910;12.530;2022-11-20T04:11:52;-2.90;99.90
1461;DHT22;724;49.910;12.530;2022-11-20T04:14:19;-2.90;99.90
1461;DHT22;724;49.910;12.530;2022-11-20T04:16:46;-3.00;99.90
1461;DHT22;724;49.910;12.530;2022-11-20T04:19:14;-3.00;99.90
1461;DHT22;724;49.910;12.530;2022-11-20T04:21:42;-3.00;99.90
1461;DHT22;724;49.910;12.530;2022-11-20T04:24:11;-2.90;99.90
1461;DHT22;724;49.910;12.530;2022-11-20T04:26:38;-2.80;99.90
1461;DHT22;724;49.910;12.530;2022-11-20T04:29:05;-2.90;99.90
1461;DHT22;724;49.910;12.530;2022-11-20T04:31:34;-2.90;99.90
1461;DHT22;724;49.910;12.530;2022-11-20T04:34:02;-2.80;99.90
1461;DHT22;724;49.910;12.530;2022-11-20T04:36:30;-2.60;99.90
1461;DHT22;724;49.910;12.530;2022-11-20T04:38:58;-2.70;99.90
1461;DHT22;724;49.910;12.530;2022-11-20T04:41:28;-2.70;99.90
1461;DHT22;724;49.910;12.530;2022-11-20T04:43:57;-2.70;99.90
1461;DHT22;724;49.910;12.530;2022-11-20T04:46:28;-2.70;99.90
1461;DHT22;724;49.910;12.530;2022-11-20T04:48:56;-2.80;99.90
1461;DHT22;724;49.910;12.530;2022-11-20T04:51:23;-2.80;99.90
1461;DHT22;724;49.910;12.530;2022-11-20T04:53:50;-2.70;99.90
1461;DHT22;724;49.910;12.530;2022-11-20T04:56:17;-2.70;99.90
1461;DHT22;724;49.910;12.530;2022-11-20T04:58:45;-2.70;99.90
1461;DHT22;724;49.910;12.530;2022-11-20T05:01:14;-2.70;99.90
1461;DHT22;724;49.910;12.530;2022-11-20T05:03:42;-2.70;99.90
1461;DHT22;724;49.910;12.530;2022-11-20T05:06:09;-2.70;99.90
1461;DHT22;724;49.910;12.530;2022-11-20T05:08:36;-2.70;99.90
1461;DHT22;724;49.910;12.530;2022-11-20T05:11:05;-2.70;99.90
1461;DHT22;724;49.910;12.530;2022-11-20T05:13:31;-2.60;99.90
1461;DHT22;724;49.910;12.530;2022-11-20T05:16:03;-2.50;99.90
1461;DHT22;724;49.910;12.530;2022-11-20T05:18:30;-2.50;99.90
1461;DHT22;724;49.910;12.530;2022-11-20T05:20:58;-2.50;99.90
1461;DHT22;724;49.910;12.530;2022-11-20T05:23:25;-2.50;99.90
1461;DHT22;724;49.910;12.530;2022-11-20T05:25:52;-2.40;99.90
1461;DHT22;724;49.910;12.530;2022-11-20T05:28:19;-2.60;99.90
1461;DHT22;724;49.910;12.530;2022-11-20T05:30:46;-2.60;99.90
1461;DHT22;724;49.910;12.530;2022-11-20T05:33:15;-2.60;99.90
1461;DHT22;724;49.910;12.530;2022-11-20T05:35:42;-2.70;99.90
1461;DHT22;724;49.910;12.530;2022-11-20T05:38:09;-2.70;99.90
1461;DHT22;724;49.910;12.530;2022-11-20T05:40:35;-2.70;99.90
1461;DHT22;724;49.910;12.530;2022-11-20T05:43:02;-2.70;99.90
1461;DHT22;724;49.910;12.530;2022-11-20T05:45:30;-2.70;99.90
1461;DHT22;724;49.910;12.530;2022-11-20T05:47:58;-2.70;99.90
1461;DHT22;724;49.910;12.530;2022-11-20T05:50:26;-2.60;99.90
1461;DHT22;724;49.910;12.530;2022-11-20T05:52:53;-2.70;99.90
1461;DHT22;724;49.910;12.530;2022-11-20T05:55:20;-2.60;99.90
1461;DHT22;724;49.910;12.530;2022-11-20T05:57:47;-2.60;99.90
1461;DHT22;724;49.910;12.530;2022-11-20T06:00:14;-2.60;99.90
1461;DHT22;724;49.910;12.530;2022-11-20T06:02:41;-2.60;99.90
1461;DHT22;724;49.910;12.530;2022-11-20T06:05:08;-2.60;99.90
1461;DHT22;724;49.910;12.530;2022-11-20T06:07:36;-2.50;99.90
1461;DHT22;724;49.910;12.530;2022-11-20T06:10:03;-2.60;99.90
1461;DHT22;724;49.910;12.530;2022-11-20T06:12:31;-2.70;99.90
1461;DHT22;724;49.910;12.530;2022-11-20T06:14:58;-2.60;99.90
1461;DHT22;724;49.910;12.530;2022-11-20T06:17:26;-2.50;99.90
1461;DHT22;724;49.910;12.530;2022-11-20T06:19:53;-2.50;99.90
1461;DHT22;724;49.910;12.530;2022-11-20T06:22:19;-2.50;99.90
1461;DHT22;724;49.910;12.530;2022-11-20T06:24:48;-2.50;99.90
1461;DHT22;724;49.910;12.530;2022-11-20T06:27:15;-2.50;99.90
1461;DHT22;724;49.910;12.530;2022-11-20T06:29:42;-2.40;99.90
1461;DHT22;724;49.910;12.530;2022-11-20T06:32:09;-2.30;99.90
1461;DHT22;724;49.910;12.530;2022-11-20T06:34:36;-2.30;99.90
1461;DHT22;724;49.910;12.530;2022-11-20T06:37:02;-2.30;99.90
1461;DHT22;724;49.910;12.530;2022-11-20T06:39:29;-2.40;99.90
1461;DHT22;724;49.910;12.530;2022-11-20T06:41:57;-2.40;99.90
1461;DHT22;724;49.910;12.530;2022-11-20T06:44:24;-2.40;99.90
1461;DHT22;724;49.910;12.530;2022-11-20T06:46:51;-2.50;99.90
1461;DHT22;724;49.910;12.530;2022-11-20T06:49:17;-2.40;99.90
1461;DHT22;724;49.910;12.530;2022-11-20T06:51:44;-2.40;99.90
1461;DHT22;724;49.910;12.530;2022-11-20T06:54:11;-2.50;99.90
1461;DHT22;724;49.910;12.530;2022-11-20T06:56:37;-2.60;99.90
1461;DHT22;724;49.910;12.530;2022-11-20T06:59:06;-2.40;99.90
1461;DHT22;724;49.910;12.530;2022-11-20T07:01:33;-2.40;99.90
1461;DHT22;724;49.910;12.530;2022-11-20T07:04:01;-2.30;99.90
1461;DHT22;724;49.910;12.530;2022-11-20T07:06:28;-2.40;99.90
1461;DHT22;724;49.910;12.530;2022-11-20T07:08:55;-2.40;99.90
1461;DHT22;724;49.910;12.530;2022-11-20T07:11:23;-2.40;99.90
1461;DHT22;724;49.910;12.530;2022-11-20T07:13:50;-2.30;99.90
1461;DHT22;724;49.910;12.530;2022-11-20T07:16:18;-2.10;99.90
1461;DHT22;724;49.910;12.530;2022-11-20T07:18:44;-2.10;99.90
1461;DHT22;724;49.910;12.530;2022-11-20T07:21:11;-2.20;99.90
1461;DHT22;724;49.910;12.530;2022-11-20T07:23:39;-2.10;99.90
1461;DHT22;724;49.910;12.530;2022-11-20T07:26:07;-2.00;99.90
1461;DHT22;724;49.910;12.530;2022-11-20T07:28:35;-2.10;99.90
1461;DHT22;724;49.910;12.530;2022-11-20T07:31:04;-2.10;99.90
1461;DHT22;724;49.910;12.530;2022-11-20T07:33:33;-1.90;99.90
1461;DHT22;724;49.910;12.530;2022-11-20T07:36:00;-2.00;99.90
1461;DHT22;724;49.910;12.530;2022-11-20T07:38:27;-2.00;99.90
1461;DHT22;724;49.910;12.530;2022-11-20T07:40:54;-1.90;99.90
1461;DHT22;724;49.910;12.530;2022-11-20T07:43:22;-1.90;99.90
1461;DHT22;724;49.910;12.530;2022-11-20T07:45:50;-1.90;99.90
1461;DHT22;724;49.910;12.530;2022-11-20T07:48:17;-2.00;99.90
1461;DHT22;724;49.910;12.530;2022-11-20T07:50:45;-1.90;99.90
1461;DHT22;724;49.910;12.530;2022-11-20T07:53:12;-1.80;99.90
1461;DHT22;724;49.910;12.530;2022-11-20T07:55:46;-1.90;99.90
1461;DHT22;724;49.910;12.530;2022-11-20T07:58:12;-2.00;45.60
1461;DHT22;724;49.910;12.530;2022-11-20T08:00:40;-1.90;70.80
1461;DHT22;724;49.910;12.530;2022-11-20T08:03:07;-1.80;83.80
1461;DHT22;724;49.910;12.530;2022-11-20T08:05:34;-1.80;3.90
1461;DHT22;724;49.910;12.530;2022-11-20T08:08:02;-1.80;1.00
1461;DHT22;724;49.910;12.530;2022-11-20T08:10:29;-1.80;1.00
1461;DHT22;724;49.910;12.530;2022-11-20T08:12:56;-1.60;1.00
1461;DHT22;724;49.910;12.530;2022-11-20T08:15:40;-1.80;1.00
1461;DHT22;724;49.910;12.530;2022-11-20T08:18:09;-1.50;1.00
1461;DHT22;724;49.910;12.530;2022-11-20T08:20:37;-1.40;1.00
1461;DHT22;724;49.910;12.530;2022-11-20T08:23:07;-1.30;1.00
1461;DHT22;724;49.910;12.530;2022-11-20T08:25:35;-1.60;99.90
1461;DHT22;724;49.910;12.530;2022-11-20T08:28:03;-1.50;99.90
1461;DHT22;724;49.910;12.530;2022-11-20T08:30:31;-1.20;99.90
1461;DHT22;724;49.910;12.530;2022-11-20T08:33:02;-1.20;99.90
1461;DHT22;724;49.910;12.530;2022-11-20T08:35:29;-1.30;99.90
1461;DHT22;724;49.910;12.530;2022-11-20T08:37:58;-1.10;99.90
1461;DHT22;724;49.910;12.530;2022-11-20T08:40:26;-1.00;90.50
1461;DHT22;724;49.910;12.530;2022-11-20T08:42:53;-0.90;1.00
1461;DHT22;724;49.910;12.530;2022-11-20T08:45:20;-1.00;1.00
1461;DHT22;724;49.910;12.530;2022-11-20T08:47:47;-1.10;1.00
1461;DHT22;724;49.910;12.530;2022-11-20T08:50:15;-1.20;1.00
1461;DHT22;724;49.910;12.530;2022-11-20T08:52:42;-1.10;1.00
1461;DHT22;724;49.910;12.530;2022-11-20T08:55:09;-1.20;1.00
1461;DHT22;724;49.910;12.530;2022-11-20T08:57:37;-1.00;66.20
1461;DHT22;724;49.910;12.530;2022-11-20T09:00:06;-1.00;99.90
1461;DHT22;724;49.910;12.530;2022-11-20T09:02:33;-1.00;99.90
1461;DHT22;724;49.910;12.530;2022-11-20T09:05:00;-0.90;1.00
1461;DHT22;724;49.910;12.530;2022-11-20T09:07:28;-0.80;1.00
1461;DHT22;724;49.910;12.530;2022-11-20T09:09:55;-0.70;1.00
1461;DHT22;724;49.910;12.530;2022-11-20T09:12:22;-0.70;1.00
1461;DHT22;724;49.910;12.530;2022-11-20T09:14:50;-0.70;1.00
1461;DHT22;724;49.910;12.530;2022-11-20T09:17:17;-0.60;1.00
1461;DHT22;724;49.910;12.530;2022-11-20T09:19:45;-0.50;1.00
1461;DHT22;724;49.910;12.530;2022-11-20T09:22:12;-0.50;1.00
1461;DHT22;724;49.910;12.530;2022-11-20T09:24:39;-0.30;1.00
1461;DHT22;724;49.910;12.530;2022-11-20T09:27:06;0.00;1.00
1461;DHT22;724;49.910;12.530;2022-11-20T09:29:32;0.10;99.90
1461;DHT22;724;49.910;12.530;2022-11-20T09:32:01;0.00;99.90
1461;DHT22;724;49.910;12.530;2022-11-20T09:34:27;0.00;99.90
1461;DHT22;724;49.910;12.530;2022-11-20T09:36:54;-0.20;99.90
1461;DHT22;724;49.910;12.530;2022-11-20T09:39:21;-0.10;99.90
1461;DHT22;724;49.910;12.530;2022-11-20T09:42:02;0.00;99.90
1461;DHT22;724;49.910;12.530;2022-11-20T09:44:41;-0.10;99.90
1461;DHT22;724;49.910;12.530;2022-11-20T09:47:22;0.10;99.90
1461;DHT22;724;49.910;12.530;2022-11-20T09:50:01;0.20;99.90
1461;DHT22;724;49.910;12.530;2022-11-20T09:52:39;0.20;99.90
1461;DHT22;724;49.910;12.530;2022-11-20T09:55:10;-0.20;99.90
1461;DHT22;724;49.910;12.530;2022-11-20T09:57:41;0.00;99.90
1461;DHT22;724;49.910;12.530;2022-11-20T10:00:11;0.00;99.90
1461;DHT22;724;49.910;12.530;2022-11-20T10:02:44;-0.20;99.90
1461;DHT22;724;49.910;12.530;2022-11-20T10:05:15;-0.10;1.00
1461;DHT22;724;49.910;12.530;2022-11-20T10:07:48;-0.10;1.00
1461;DHT22;724;49.910;12.530;2022-11-20T10:10:29;-0.10;1.00
1461;DHT22;724;49.910;12.530;2022-11-20T10:13:07;0.00;1.00
1461;DHT22;724;49.910;12.530;2022-11-20T10:15:44;0.00;1.00
1461;DHT22;724;49.910;12.530;2022-11-20T10:18:31;-0.10;1.00
1461;DHT22;724;49.910;12.530;2022-11-20T10:21:08;0.00;1.00
1461;DHT22;724;49.910;12.530;2022-11-20T10:26:41;0.00;1.00
1461;DHT22;724;49.910;12.530;2022-11-20T10:29:12;0.20;1.00
1461;DHT22;724;49.910;12.530;2022-11-20T10:31:45;0.40;1.00
1461;DHT22;724;49.910;12.530;2022-11-20T10:34:20;0.40;1.00
1461;DHT22;724;49.910;12.530;2022-11-20T10:36:52;0.50;1.00
1461;DHT22;724;49.910;12.530;2022-11-20T10:39:28;0.50;1.00
1461;DHT22;724;49.910;12.530;2022-11-20T10:41:57;0.40;99.90
1461;DHT22;724;49.910;12.530;2022-11-20T10:44:27;0.70;99.90
1461;DHT22;724;49.910;12.530;2022-11-20T10:47:14;0.90;99.90
1461;DHT22;724;49.910;12.530;2022-11-20T10:49:43;0.70;1.00
1461;DHT22;724;49.910;12.530;2022-11-20T10:52:16;0.60;1.00
1461;DHT22;724;49.910;12.530;2022-11-20T10:54:49;0.40;1.00
1461;DHT22;724;49.910;12.530;2022-11-20T10:57:31;0.20;99.90
1461;DHT22;724;49.910;12.530;2022-11-20T11:00:05;0.10;99.90
1461;DHT22;724;49.910;12.530;2022-11-20T11:02:37;0.10;1.00
1461;DHT22;724;49.910;12.530;2022-11-20T11:05:13;0.00;1.00
1461;DHT22;724;49.910;12.530;2022-11-20T11:07:45;-0.10;1.00
1461;DHT22;724;49.910;12.530;2022-11-20T11:10:18;0.00;1.00
1461;DHT22;724;49.910;12.530;2022-11-20T11:12:47;0.20;27.00
1461;DHT22;724;49.910;12.530;2022-11-20T11:15:24;0.30;51.90
1461;DHT22;724;49.910;12.530;2022-11-20T11:17:52;0.10;47.90
1461;DHT22;724;49.910;12.530;2022-11-20T11:20:21;0.20;88.70
1461;DHT22;724;49.910;12.530;2022-11-20T11:22:53;0.30;99.90
1461;DHT22;724;49.910;12.530;2022-11-20T11:25:26;0.40;84.30
1461;DHT22;724;49.910;12.530;2022-11-20T11:27:54;0.50;86.00
1461;DHT22;724;49.910;12.530;2022-11-20T11:30:23;0.60;1.00
1461;DHT22;724;49.910;12.530;2022-11-20T11:32:50;0.40;1.00
1461;DHT22;724;49.910;12.530;2022-11-20T11:35:24;0.40;1.00
1461;DHT22;724;49.910;12.530;2022-11-20T11:37:52;0.30;37.20
1461;DHT22;724;49.910;12.530;2022-11-20T11:40:21;0.20;99.90
1461;DHT22;724;49.910;12.530;2022-11-20T11:42:54;0.30;99.90
1461;DHT22;724;49.910;12.530;2022-11-20T11:45:23;0.20;99.90
1461;DHT22;724;49.910;12.530;2022-11-20T11:47:51;0.50;99.90
1461;DHT22;724;49.910;12.530;2022-11-20T11:50:20;0.50;99.90
1461;DHT22;724;49.910;12.530;2022-11-20T11:52:56;0.60;99.90
1461;DHT22;724;49.910;12.530;2022-11-20T11:55:31;0.60;99.90
1461;DHT22;724;49.910;12.530;2022-11-20T11:58:11;0.60;99.90
1461;DHT22;724;49.910;12.530;2022-11-20T12:00:49;0.60;99.90
1461;DHT22;724;49.910;12.530;2022-11-20T12:03:20;0.60;99.90
1461;DHT22;724;49.910;12.530;2022-11-20T12:05:53;0.60;99.90
1461;DHT22;724;49.910;12.530;2022-11-20T12:08:25;0.40;99.90
1461;DHT22;724;49.910;12.530;2022-11-20T12:10:57;0.50;99.90
1461;DHT22;724;49.910;12.530;2022-11-20T12:13:37;0.50;99.90
1461;DHT22;724;49.910;12.530;2022-11-20T12:16:11;0.70;99.90
1461;DHT22;724;49.910;12.530;2022-11-20T12:18:41;0.80;99.90
1461;DHT22;724;49.910;12.530;2022-11-20T12:21:18;0.90;79.70
1461;DHT22;724;49.910;12.530;2022-11-20T12:23:57;0.80;1.00
1461;DHT22;724;49.910;12.530;2022-11-20T12:26:39;0.70;1.00
1461;DHT22;724;49.910;12.530;2022-11-20T12:29:15;0.80;1.00
1461;DHT22;724;49.910;12.530;2022-11-20T12:31:59;0.90;1.00
1461;DHT22;724;49.910;12.530;2022-11-20T12:34:43;0.70;1.00
1461;DHT22;724;49.910;12.530;2022-11-20T12:37:22;0.80;1.00
1461;DHT22;724;49.910;12.530;2022-11-20T12:39:55;0.70;1.00
1461;DHT22;724;49.910;12.530;2022-11-20T12:42:38;0.70;1.00
1461;DHT22;724;49.910;12.530;2022-11-20T12:45:50;0.80;1.00
1461;DHT22;724;49.910;12.530;2022-11-20T12:51:30;0.50;29.40
1461;DHT22;724;49.910;12.530;2022-11-20T12:54:14;0.60;99.90
1461;DHT22;724;49.910;12.530;2022-11-20T12:56:52;0.60;99.90
1461;DHT22;724;49.910;12.530;2022-11-20T12:59:39;0.60;99.90
1461;DHT22;724;49.910;12.530;2022-11-20T13:02:21;0.70;99.90
1461;DHT22;724;49.910;12.530;2022-11-20T13:05:03;0.80;99.90
1461;DHT22;724;49.910;12.530;2022-11-20T13:07:33;0.60;99.90
1461;DHT22;724;49.910;12.530;2022-11-20T13:10:02;0.80;99.90
1461;DHT22;724;49.910;12.530;2022-11-20T13:12:34;0.70;99.90
1461;DHT22;724;49.910;12.530;2022-11-20T13:15:08;0.70;99.90
1461;DHT22;724;49.910;12.530;2022-11-20T13:17:46;0.60;99.90
1461;DHT22;724;49.910;12.530;2022-11-20T13:20:17;0.50;99.90
1461;DHT22;724;49.910;12.530;2022-11-20T13:22:46;0.60;99.90
1461;DHT22;724;49.910;12.530;2022-11-20T13:25:23;0.60;99.90
1461;DHT22;724;49.910;12.530;2022-11-20T13:27:51;0.50;99.90
1461;DHT22;724;49.910;12.530;2022-11-20T13:30:20;0.50;99.90
1461;DHT22;724;49.910;12.530;2022-11-20T13:32:49;0.50;99.90
1461;DHT22;724;49.910;12.530;2022-11-20T13:35:25;0.50;99.90
1461;DHT22;724;49.910;12.530;2022-11-20T13:38:04;0.60;99.90
1461;DHT22;724;49.910;12.530;2022-11-20T13:40:31;0.60;99.90
1461;DHT22;724;49.910;12.530;2022-11-20T13:43:11;0.60;99.90
1461;DHT22;724;49.910;12.530;2022-11-20T13:45:41;0.70;99.90
1461;DHT22;724;49.910;12.530;2022-11-20T13:48:19;0.50;99.90
1461;DHT22;724;49.910;12.530;2022-11-20T13:50:58;0.50;99.90
1461;DHT22;724;49.910;12.530;2022-11-20T13:53:36;0.60;99.90
1461;DHT22;724;49.910;12.530;2022-11-20T13:56:15;0.50;99.90
1461;DHT22;724;49.910;12.530;2022-11-20T13:58:56;0.50;99.90
1461;DHT22;724;49.910;12.530;2022-11-20T14:01:28;0.50;99.90
1461;DHT22;724;49.910;12.530;2022-11-20T14:03:56;0.50;99.90
1461;DHT22;724;49.910;12.530;2022-11-20T14:06:26;0.50;99.90
1461;DHT22;724;49.910;12.530;2022-11-20T14:08:54;0.50;99.90
1461;DHT22;724;49.910;12.530;2022-11-20T14:11:22;0.50;99.90
1461;DHT22;724;49.910;12.530;2022-11-20T14:13:57;0.50;99.90
1461;DHT22;724;49.910;12.530;2022-11-20T14:16:26;0.50;99.90
1461;DHT22;724;49.910;12.530;2022-11-20T14:18:53;0.40;99.90
1461;DHT22;724;49.910;12.530;2022-11-20T14:21:23;0.40;99.90
1461;DHT22;724;49.910;12.530;2022-11-20T14:23:53;0.40;99.90
1461;DHT22;724;49.910;12.530;2022-11-20T14:26:20;0.30;99.90
1461;DHT22;724;49.910;12.530;2022-11-20T14:28:49;0.40;99.90
1461;DHT22;724;49.910;12.530;2022-11-20T14:31:22;0.40;99.90
1461;DHT22;724;49.910;12.530;2022-11-20T14:33:51;0.40;99.90
1461;DHT22;724;49.910;12.530;2022-11-20T14:36:19;0.40;99.90
1461;DHT22;724;49.910;12.530;2022-11-20T14:38:47;0.30;99.90
1461;DHT22;724;49.910;12.530;2022-11-20T14:41:18;0.30;99.90
1461;DHT22;724;49.910;12.530;2022-11-20T14:43:47;0.30;99.90
1461;DHT22;724;49.910;12.530;2022-11-20T14:46:18;0.30;99.90
1461;DHT22;724;49.910;12.530;2022-11-20T14:48:47;0.30;99.90
1461;DHT22;724;49.910;12.530;2022-11-20T14:51:27;0.20;99.90
1461;DHT22;724;49.910;12.530;2022-11-20T14:53:54;0.30;99.90
1461;DHT22;724;49.910;12.530;2022-11-20T14:56:22;0.10;99.90
1461;DHT22;724;49.910;12.530;2022-11-20T14:58:56;0.20;99.90
1461;DHT22;724;49.910;12.530;2022-11-20T15:01:28;0.20;99.90
1461;DHT22;724;49.910;12.530;2022-11-20T15:04:00;0.10;99.90
1461;DHT22;724;49.910;12.530;2022-11-20T15:06:28;0.20;99.90
1461;DHT22;724;49.910;12.530;2022-11-20T15:08:56;0.10;99.90
1461;DHT22;724;49.910;12.530;2022-11-20T15:11:27;0.10;99.90
1461;DHT22;724;49.910;12.530;2022-11-20T15:13:55;0.20;99.90
1461;DHT22;724;49.910;12.530;2022-11-20T15:16:23;0.20;99.90
1461;DHT22;724;49.910;12.530;2022-11-20T15:18:55;0.10;99.90
1461;DHT22;724;49.910;12.530;2022-11-20T15:21:21;0.10;99.90
1461;DHT22;724;49.910;12.530;2022-11-20T15:23:48;0.10;99.90
1461;DHT22;724;49.910;12.530;2022-11-20T15:26:20;0.10;99.90
1461;DHT22;724;49.910;12.530;2022-11-20T15:28:49;0.00;99.90
1461;DHT22;724;49.910;12.530;2022-11-20T15:31:17;0.00;99.90
1461;DHT22;724;49.910;12.530;2022-11-20T15:33:45;0.00;99.90
1461;DHT22;724;49.910;12.530;2022-11-20T15:36:14;0.10;99.90
1461;DHT22;724;49.910;12.530;2022-11-20T15:38:40;0.00;99.90
1461;DHT22;724;49.910;12.530;2022-11-20T15:41:08;0.00;99.90
1461;DHT22;724;49.910;12.530;2022-11-20T15:43:35;0.00;99.90
1461;DHT22;724;49.910;12.530;2022-11-20T15:46:03;0.00;99.90
1461;DHT22;724;49.910;12.530;2022-11-20T15:48:34;0.00;99.90
1461;DHT22;724;49.910;12.530;2022-11-20T15:51:03;0.00;99.90
1461;DHT22;724;49.910;12.530;2022-11-20T15:53:33;-0.10;99.90
1461;DHT22;724;49.910;12.530;2022-11-20T15:56:00;0.00;99.90
1461;DHT22;724;49.910;12.530;2022-11-20T15:58:27;0.00;99.90
1461;DHT22;724;49.910;12.530;2022-11-20T16:00:54;0.00;99.90
1461;DHT22;724;49.910;12.530;2022-11-20T16:03:20;0.00;99.90
1461;DHT22;724;49.910;12.530;2022-11-20T16:05:47;0.00;99.90
1461;DHT22;724;49.910;12.530;2022-11-20T16:08:14;0.00;99.90
1461;DHT22;724;49.910;12.530;2022-11-20T16:10:42;-0.10;99.90
1461;DHT22;724;49.910;12.530;2022-11-20T16:13:12;0.00;99.90
1461;DHT22;724;49.910;12.530;2022-11-20T16:15:59;-0.10;99.90
1461;DHT22;724;49.910;12.530;2022-11-20T16:18:26;0.00;99.90
1461;DHT22;724;49.910;12.530;2022-11-20T16:20:54;0.00;99.90
1461;DHT22;724;49.910;12.530;2022-11-20T16:23:21;0.00;99.90
1461;DHT22;724;49.910;12.530;2022-11-20T16:25:50;0.00;99.90
1461;DHT22;724;49.910;12.530;2022-11-20T16:28:17;0.00;99.90
1461;DHT22;724;49.910;12.530;2022-11-20T16:30:45;-0.10;99.90
1461;DHT22;724;49.910;12.530;2022-11-20T16:33:14;0.00;99.90
1461;DHT22;724;49.910;12.530;2022-11-20T16:35:41;0.00;99.90